Strona główna
METAR-TAF:

METAR-TAF

Lotnisko :

Port lotniczy Ørsta/Volda

Ørsta-Volda, Norwegia

Szerokość geograficzna: 62-11N, Długość geograficzna: 006-04E, wysokość: 7 m

Aktualna obserwacja pogody

Raport powstał 6 godziny i 7 minut temu, godzina 20:50 UTC
Wiatr 12 kt od wschodnio-północny wschód w porywach dochodzący do 27 kt, zmienny między północ i wschodnio-południowy wschód
Temperatura 11°C
Wilgotność 37%
Ciśnienie 1014 hPa
Widzialność 10 km lub więcej
Brak chmur poniżej 1500 m i brak chmur cumulonimbus

METAR: ENOV 052050Z 06012G27KT 010V110 CAVOK 11/M03 Q1014 RMK WIND 2175FT 13024KT

czas: 04:57 (02:57 UTC)


TAF: brakujący

Obserwacja i prognoza pogody dla ponad 4000 lotnisk (raport METAR i TAF).

Dostępne stacje oznaczono żółtymi i czerwonymi punktami na mapie.

Najedź kursorem aby zobaczyć nazwę stacji.

Kliknij aby zobaczyć obserwacje i prognozy pogody.

Aby zmienić mapę: kliknij na zielony przycisk z czarnym krzyżykiem, aby powiększyć; na zielony przycisk z myślnikiem, aby pomniejszyć; na zielone strzałki, aby przejść do map sąsiednich.


METAR-TAF: